createdAt,value
2018-02-20T00:01:05.776Z,70.10
2018-02-20T00:03:33.401Z,65.60
2018-02-20T00:06:01.165Z,73.70
2018-02-20T00:08:28.837Z,69.00
2018-02-20T00:10:56.454Z,68.77
2018-02-20T00:13:24.177Z,64.27
2018-02-20T00:15:51.820Z,65.90
2018-02-20T00:18:19.453Z,61.33
2018-02-20T00:20:47.843Z,62.47
2018-02-20T00:23:15.515Z,54.23
2018-02-20T00:25:43.169Z,60.53
2018-02-20T00:28:10.884Z,62.83
2018-02-20T00:30:38.692Z,63.50
2018-02-20T00:33:06.324Z,60.63
2018-02-20T00:35:34.195Z,59.43
2018-02-20T00:38:02.185Z,62.07
2018-02-20T00:40:29.829Z,56.40
2018-02-20T00:42:57.431Z,59.23
2018-02-20T00:45:25.041Z,56.87
2018-02-20T00:47:52.676Z,60.17
2018-02-20T00:50:20.946Z,59.47
2018-02-20T00:52:48.593Z,63.37
2018-02-20T00:55:16.221Z,55.87
2018-02-20T00:57:44.622Z,58.33
2018-02-20T01:00:13.550Z,57.27
2018-02-20T01:02:41.996Z,58.90
2018-02-20T01:05:09.628Z,65.10
2018-02-20T01:07:38.034Z,57.80
2018-02-20T01:10:05.628Z,56.50
2018-02-20T01:12:34.247Z,57.43
2018-02-20T01:15:02.711Z,57.77
2018-02-20T01:17:30.387Z,55.30
2018-02-20T01:19:58.821Z,60.23
2018-02-20T01:22:26.455Z,55.17
2018-02-20T01:24:54.226Z,57.60
2018-02-20T01:27:21.852Z,52.90
2018-02-20T01:29:50.278Z,53.53
2018-02-20T01:32:17.938Z,63.10
2018-02-20T01:34:45.666Z,60.77
2018-02-20T01:37:14.104Z,54.43
2018-02-20T01:39:41.782Z,60.03
2018-02-20T01:42:10.927Z,62.37
2018-02-20T01:44:38.542Z,64.17
2018-02-20T01:47:06.189Z,60.47
2018-02-20T01:49:33.835Z,61.60
2018-02-20T01:52:01.440Z,60.03
2018-02-20T01:54:29.844Z,56.37
2018-02-20T01:56:57.465Z,57.07
2018-02-20T01:59:26.064Z,58.37
2018-02-20T02:01:54.703Z,57.90
2018-02-20T02:04:22.385Z,56.37
2018-02-20T02:06:50.352Z,56.50
2018-02-20T02:09:18.449Z,59.60
2018-02-20T02:11:46.101Z,56.87
2018-02-20T02:14:13.790Z,57.30
2018-02-20T02:16:41.411Z,61.10
2018-02-20T02:19:09.814Z,72.37
2018-02-20T02:21:38.215Z,61.80
2018-02-20T02:24:05.847Z,61.53
2018-02-20T02:26:34.221Z,60.67
2018-02-20T02:29:02.615Z,60.63
2018-02-20T02:31:31.020Z,64.43
2018-02-20T02:33:58.654Z,61.83
2018-02-20T02:36:26.308Z,60.70
2018-02-20T02:38:54.744Z,57.23
2018-02-20T02:41:22.827Z,58.07
2018-02-20T02:43:50.613Z,52.30
2018-02-20T02:46:19.254Z,63.67
2018-02-20T02:48:46.869Z,63.03
2018-02-20T02:51:15.341Z,56.57
2018-02-20T02:53:42.954Z,60.10
2018-02-20T02:56:10.616Z,57.07
2018-02-20T02:58:38.225Z,57.23
2018-02-20T03:01:06.645Z,57.17
2018-02-20T03:03:34.245Z,56.87
2018-02-20T03:06:01.857Z,58.53
2018-02-20T03:08:29.503Z,60.60
2018-02-20T03:10:57.109Z,63.40
2018-02-20T03:13:24.734Z,59.37
2018-02-20T03:15:53.803Z,61.73
2018-02-20T03:18:22.269Z,62.27
2018-02-20T03:20:49.875Z,59.87
2018-02-20T03:23:17.478Z,64.73
2018-02-20T03:25:45.138Z,61.87
2018-02-20T03:28:12.736Z,56.37
2018-02-20T03:30:41.494Z,55.73
2018-02-20T03:33:09.130Z,63.43
2018-02-20T03:35:36.843Z,62.67
2018-02-20T03:38:05.357Z,62.07
2018-02-20T03:40:32.938Z,60.80
2018-02-20T03:43:00.598Z,54.07
2018-02-20T03:45:28.195Z,58.33
2018-02-20T03:47:56.593Z,59.47
2018-02-20T03:50:24.192Z,57.13
2018-02-20T03:52:52.664Z,60.50
2018-02-20T03:55:20.300Z,56.07
2018-02-20T03:57:47.936Z,58.40
2018-02-20T04:00:16.354Z,59.97
2018-02-20T04:02:43.956Z,65.83
2018-02-20T04:05:12.170Z,60.23
2018-02-20T04:07:39.794Z,66.97
2018-02-20T04:10:07.409Z,61.37
2018-02-20T04:12:35.604Z,55.60
2018-02-20T04:15:03.220Z,58.00
2018-02-20T04:17:31.169Z,60.27
2018-02-20T04:20:00.806Z,65.90
2018-02-20T04:22:28.398Z,57.00
2018-02-20T04:24:56.040Z,56.53
2018-02-20T04:27:23.653Z,63.90
2018-02-20T04:29:51.287Z,61.97
2018-02-20T04:32:18.913Z,57.77
2018-02-20T04:34:46.513Z,56.47
2018-02-20T04:37:14.193Z,68.07
2018-02-20T04:39:41.804Z,59.53
2018-02-20T04:42:09.427Z,58.50
2018-02-20T04:44:38.681Z,59.10
2018-02-20T04:47:06.370Z,54.07
2018-02-20T04:49:33.986Z,61.10
2018-02-20T04:52:01.676Z,62.13
2018-02-20T04:54:30.440Z,57.33
2018-02-20T04:56:58.100Z,62.80
2018-02-20T04:59:25.865Z,62.07
2018-02-20T05:01:53.513Z,66.40
2018-02-20T05:04:21.200Z,60.73
2018-02-20T05:06:48.896Z,65.20
2018-02-20T05:09:16.552Z,60.43
2018-02-20T05:11:44.233Z,58.93
2018-02-20T05:14:12.656Z,60.47
2018-02-20T05:16:40.328Z,63.43
2018-02-20T05:19:08.786Z,68.60
2018-02-20T05:21:36.423Z,64.97
2018-02-20T05:24:04.812Z,61.83
2018-02-20T05:26:32.435Z,63.30
2018-02-20T05:29:00.089Z,62.57
2018-02-20T05:31:27.699Z,69.33
2018-02-20T05:33:55.356Z,59.07
2018-02-20T05:36:22.983Z,64.43
2018-02-20T05:38:50.689Z,69.10
2018-02-20T05:41:18.301Z,66.87
2018-02-20T05:43:45.956Z,67.07
2018-02-20T05:46:13.600Z,70.33
2018-02-20T05:48:41.201Z,66.33
2018-02-20T05:51:09.719Z,66.40
2018-02-20T05:53:37.332Z,67.33
2018-02-20T05:56:05.003Z,76.27
2018-02-20T05:58:33.407Z,74.07
2018-02-20T06:01:01.020Z,67.43
2018-02-20T06:03:28.645Z,69.10
2018-02-20T06:05:56.303Z,64.03
2018-02-20T06:08:23.956Z,65.57
2018-02-20T06:10:51.568Z,70.17
2018-02-20T06:13:19.247Z,75.30
2018-02-20T06:15:49.005Z,63.17
2018-02-20T06:18:16.645Z,76.30
2018-02-20T06:20:44.299Z,68.90
2018-02-20T06:23:11.956Z,66.47
2018-02-20T06:25:40.410Z,70.00
2018-02-20T06:28:08.043Z,68.00
2018-02-20T06:30:35.697Z,67.23
2018-02-20T06:33:03.351Z,64.27
2018-02-20T06:35:30.963Z,69.50
2018-02-20T06:37:59.485Z,70.03
2018-02-20T06:40:27.113Z,77.30
2018-02-20T06:42:55.495Z,74.07
2018-02-20T06:45:24.905Z,74.07
2018-02-20T06:47:52.523Z,69.33
2018-02-20T06:50:20.149Z,76.93
2018-02-20T06:52:47.761Z,75.20
2018-02-20T06:55:15.410Z,72.50
2018-02-20T06:57:43.058Z,75.73
2018-02-20T07:00:10.681Z,74.60
2018-02-20T07:02:38.294Z,70.13
2018-02-20T07:05:05.915Z,75.00
2018-02-20T07:07:33.574Z,72.03
2018-02-20T07:10:01.217Z,70.50
2018-02-20T07:12:28.846Z,75.90
2018-02-20T07:14:56.504Z,70.17
2018-02-20T07:17:24.146Z,74.27
2018-02-20T07:19:52.909Z,73.33
2018-02-20T07:22:20.659Z,73.90
2018-02-20T07:24:48.295Z,71.70
2018-02-20T07:27:16.704Z,68.43
2018-02-20T07:29:44.471Z,70.30
2018-02-20T07:32:12.106Z,69.43
2018-02-20T07:34:40.529Z,64.23
2018-02-20T07:37:08.127Z,66.50
2018-02-20T07:39:35.850Z,67.57
2018-02-20T07:42:03.490Z,67.63
2018-02-20T07:44:31.142Z,69.23
2018-02-20T07:46:59.076Z,68.13
2018-02-20T07:49:27.480Z,72.13
2018-02-20T07:51:55.362Z,66.93
2018-02-20T07:54:23.089Z,65.63
2018-02-20T07:56:50.858Z,66.50
2018-02-20T07:59:18.477Z,68.97
2018-02-20T08:01:46.220Z,64.37
2018-02-20T08:04:13.841Z,69.73
2018-02-20T08:06:41.645Z,65.87
2018-02-20T08:09:09.273Z,60.73
2018-02-20T08:11:36.901Z,66.77
2018-02-20T08:14:04.568Z,58.77
2018-02-20T08:16:32.181Z,60.73
2018-02-20T08:18:59.794Z,53.17
2018-02-20T08:21:27.493Z,52.63
2018-02-20T08:23:55.197Z,50.30
2018-02-20T08:26:22.834Z,57.73
2018-02-20T08:28:50.689Z,56.73
2018-02-20T08:31:18.409Z,54.57
2018-02-20T08:33:46.697Z,55.17
2018-02-20T08:36:15.094Z,53.33
2018-02-20T08:38:42.726Z,54.53
2018-02-20T08:41:10.418Z,53.37
2018-02-20T08:43:38.027Z,48.37
2018-02-20T08:46:05.958Z,54.13
2018-02-20T08:48:33.569Z,50.87
2018-02-20T08:51:02.034Z,46.93
2018-02-20T08:53:29.696Z,47.23
2018-02-20T08:55:57.439Z,40.13
2018-02-20T08:58:25.074Z,47.07
2018-02-20T09:00:52.689Z,51.17
2018-02-20T09:03:20.346Z,46.70
2018-02-20T09:05:47.991Z,50.83
2018-02-20T09:08:15.634Z,59.77
2018-02-20T09:10:43.246Z,57.53
2018-02-20T09:13:11.007Z,56.37
2018-02-20T09:15:38.658Z,62.37
2018-02-20T09:18:06.387Z,59.83
2018-02-20T09:20:33.982Z,58.20
2018-02-20T09:23:01.788Z,55.07
2018-02-20T09:25:29.406Z,54.83
2018-02-20T09:27:57.106Z,52.90
2018-02-20T09:30:25.500Z,54.73
2018-02-20T09:32:53.383Z,51.70
2018-02-20T09:35:21.041Z,53.50
2018-02-20T09:37:48.664Z,49.37
2018-02-20T09:40:17.093Z,48.03
2018-02-20T09:42:44.742Z,46.13
2018-02-20T09:45:12.386Z,44.97
2018-02-20T09:47:40.016Z,44.33
2018-02-20T09:50:07.668Z,49.20
2018-02-20T09:52:35.256Z,48.00
2018-02-20T09:55:03.274Z,51.27
2018-02-20T09:57:31.411Z,48.50
2018-02-20T09:59:59.094Z,46.10
2018-02-20T10:02:26.749Z,49.83
2018-02-20T10:04:55.592Z,46.37
2018-02-20T10:07:23.229Z,49.40
2018-02-20T10:09:50.863Z,47.53
2018-02-20T10:12:19.259Z,50.43
2018-02-20T10:14:46.914Z,49.50
2018-02-20T10:17:14.586Z,47.43
2018-02-20T10:19:42.546Z,50.00
2018-02-20T10:22:10.170Z,49.13
2018-02-20T10:24:37.830Z,47.57
2018-02-20T10:27:05.715Z,41.33
2018-02-20T10:29:33.310Z,36.50
2018-02-20T10:32:00.954Z,37.43
2018-02-20T10:34:29.342Z,40.60
2018-02-20T10:36:57.024Z,39.50
2018-02-20T10:39:24.700Z,37.40
2018-02-20T10:41:53.146Z,39.67
2018-02-20T10:44:20.745Z,41.07
2018-02-20T10:46:48.856Z,41.33
2018-02-20T10:49:16.470Z,36.43
2018-02-20T10:51:44.088Z,40.10
2018-02-20T10:54:11.716Z,37.73
2018-02-20T10:56:39.384Z,41.20
2018-02-20T10:59:07.029Z,41.03
2018-02-20T11:01:35.401Z,44.07
2018-02-20T11:04:03.088Z,35.73
2018-02-20T11:06:30.736Z,34.60
2018-02-20T11:08:59.143Z,39.80
2018-02-20T11:11:26.776Z,37.80
2018-02-20T11:13:54.431Z,38.33
2018-02-20T11:16:22.809Z,37.00
2018-02-20T11:18:50.811Z,38.30
2018-02-20T11:21:19.233Z,39.37
2018-02-20T11:23:46.822Z,40.30
2018-02-20T11:26:15.227Z,36.73
2018-02-20T11:28:43.517Z,40.87
2018-02-20T11:31:11.934Z,44.17
2018-02-20T11:33:39.577Z,51.03
2018-02-20T11:36:08.645Z,42.80
2018-02-20T11:38:36.317Z,48.20
2018-02-20T11:41:04.027Z,46.53
2018-02-20T11:43:32.434Z,41.33
2018-02-20T11:46:00.085Z,42.90
2018-02-20T11:48:27.742Z,42.00
2018-02-20T11:50:55.383Z,41.97
2018-02-20T11:53:23.801Z,44.90
2018-02-20T11:55:51.519Z,42.17
2018-02-20T11:58:19.961Z,40.77
2018-02-20T12:00:48.339Z,41.90
2018-02-20T12:03:16.828Z,44.97
2018-02-20T12:05:44.502Z,44.93
2018-02-20T12:08:12.163Z,43.87
2018-02-20T12:10:39.757Z,44.47
2018-02-20T12:13:08.179Z,43.07
2018-02-20T12:15:35.794Z,46.40
2018-02-20T12:18:04.201Z,40.33
2018-02-20T12:20:31.982Z,39.97
2018-02-20T12:22:59.594Z,38.30
2018-02-20T12:25:28.006Z,40.70
2018-02-20T12:27:56.522Z,41.60
2018-02-20T12:30:25.044Z,39.77
2018-02-20T12:32:53.431Z,41.63
2018-02-20T12:35:21.035Z,37.13
2018-02-20T12:37:48.738Z,34.53
2018-02-20T12:40:17.140Z,39.10
2018-02-20T12:42:44.806Z,41.33
2018-02-20T12:45:12.480Z,36.90
2018-02-20T12:47:40.959Z,36.77
2018-02-20T12:50:08.650Z,42.90
2018-02-20T12:52:36.438Z,42.13
2018-02-20T12:55:04.833Z,45.57
2018-02-20T12:57:33.251Z,43.77
2018-02-20T13:00:00.931Z,45.20
2018-02-20T13:02:28.558Z,48.10
2018-02-20T13:04:56.192Z,48.87
2018-02-20T13:07:24.621Z,48.60
2018-02-20T13:09:52.257Z,50.10
2018-02-20T13:12:19.920Z,47.73
2018-02-20T13:14:47.535Z,46.17
2018-02-20T13:17:15.203Z,48.53
2018-02-20T13:19:42.949Z,53.37
2018-02-20T13:22:10.580Z,54.20
2018-02-20T13:24:38.212Z,48.80
2018-02-20T13:27:05.894Z,50.70
2018-02-20T13:29:33.534Z,53.67
2018-02-20T13:32:01.148Z,53.00
2018-02-20T13:34:28.783Z,49.53
2018-02-20T13:36:56.377Z,50.00
2018-02-20T13:39:24.110Z,52.27
2018-02-20T13:41:51.796Z,51.83
2018-02-20T13:44:19.457Z,53.37
2018-02-20T13:46:47.108Z,54.23
2018-02-20T13:49:14.847Z,53.97
2018-02-20T13:51:42.542Z,56.57
2018-02-20T13:54:10.242Z,55.17
2018-02-20T13:56:37.964Z,54.20
2018-02-20T13:59:05.563Z,57.33
2018-02-20T14:01:35.089Z,58.20
2018-02-20T14:04:03.022Z,49.57
2018-02-20T14:06:30.622Z,52.33
2018-02-20T14:08:59.417Z,47.27
2018-02-20T14:11:27.790Z,48.03
2018-02-20T14:13:56.329Z,45.43
2018-02-20T14:16:23.940Z,56.90
2018-02-20T14:18:52.366Z,46.37
2018-02-20T14:21:20.088Z,44.73
2018-02-20T14:23:48.561Z,44.73
2018-02-20T14:26:17.002Z,42.73
2018-02-20T14:28:44.687Z,44.83
2018-02-20T14:31:12.367Z,51.20
2018-02-20T14:33:40.783Z,47.80
2018-02-20T14:36:09.884Z,50.87
2018-02-20T14:38:38.046Z,49.93
2018-02-20T14:41:05.678Z,49.80
2018-02-20T14:43:34.126Z,45.37
2018-02-20T14:46:01.752Z,50.60
2018-02-20T14:48:30.276Z,50.93
2018-02-20T14:50:57.902Z,49.67
2018-02-20T14:53:27.300Z,51.97
2018-02-20T14:55:54.936Z,55.60
2018-02-20T14:58:22.644Z,51.07
2018-02-20T15:00:50.286Z,53.60
2018-02-20T15:03:17.927Z,56.53
2018-02-20T15:05:45.604Z,56.40
2018-02-20T15:08:13.302Z,57.17
2018-02-20T15:10:41.007Z,59.53
2018-02-20T15:13:08.669Z,56.73
2018-02-20T15:15:36.336Z,59.43
2018-02-20T15:18:04.047Z,61.90
2018-02-20T15:20:31.739Z,57.37
2018-02-20T15:22:59.409Z,58.93
2018-02-20T15:25:27.922Z,59.13
2018-02-20T15:27:55.561Z,57.60
2018-02-20T15:30:23.244Z,55.73
2018-02-20T15:32:50.910Z,56.47
2018-02-20T15:35:18.693Z,54.27
2018-02-20T15:37:46.537Z,47.30
2018-02-20T15:40:14.200Z,51.27
2018-02-20T15:42:43.004Z,57.93
2018-02-20T15:45:10.660Z,59.03
2018-02-20T15:47:38.355Z,55.10
2018-02-20T15:50:05.963Z,51.83
2018-02-20T15:52:33.727Z,55.10
2018-02-20T15:55:01.353Z,55.10
2018-02-20T15:57:29.876Z,54.40
2018-02-20T15:59:57.542Z,63.33
2018-02-20T16:02:25.173Z,61.10
2018-02-20T16:04:52.930Z,72.00
2018-02-20T16:07:21.365Z,58.17
2018-02-20T16:09:49.732Z,87.57
2018-02-20T16:12:17.363Z,63.43
2018-02-20T16:14:45.052Z,61.27
2018-02-20T16:17:12.699Z,63.13
2018-02-20T16:19:40.345Z,62.97
2018-02-20T16:22:07.991Z,60.57
2018-02-20T16:24:36.500Z,63.30
2018-02-20T16:27:04.217Z,62.53
2018-02-20T16:29:32.615Z,66.40
2018-02-20T16:32:01.035Z,65.23
2018-02-20T16:34:28.838Z,69.60
2018-02-20T16:36:56.894Z,61.87
2018-02-20T16:39:24.556Z,70.67
2018-02-20T16:41:52.215Z,71.27
2018-02-20T16:44:19.920Z,66.77
2018-02-20T16:46:47.685Z,71.13
2018-02-20T16:49:15.654Z,76.63
2018-02-20T16:51:44.377Z,69.10
2018-02-20T16:54:12.828Z,69.07
2018-02-20T16:56:40.563Z,71.60
2018-02-20T16:59:09.471Z,67.90
2018-02-20T17:01:37.161Z,69.17
2018-02-20T17:04:04.808Z,70.63
2018-02-20T17:06:32.489Z,67.97
2018-02-20T17:09:00.949Z,71.60
2018-02-20T17:11:28.650Z,63.03
2018-02-20T17:13:58.553Z,63.60
2018-02-20T17:16:26.934Z,69.43
2018-02-20T17:18:55.407Z,64.87
2018-02-20T17:21:23.816Z,68.47
2018-02-20T17:23:51.588Z,64.30
2018-02-20T17:26:19.233Z,67.00
2018-02-20T17:28:46.912Z,63.70
2018-02-20T17:31:15.863Z,65.73
2018-02-20T17:33:45.796Z,70.93
2018-02-20T17:36:13.416Z,66.67
2018-02-20T17:38:41.090Z,69.93
2018-02-20T17:41:08.798Z,66.10
2018-02-20T17:43:36.425Z,64.70
2018-02-20T17:46:04.863Z,69.63
2018-02-20T17:48:32.546Z,64.47
2018-02-20T17:51:00.266Z,65.30
2018-02-20T17:53:28.181Z,68.83
2018-02-20T17:55:55.846Z,65.17
2018-02-20T17:58:23.583Z,77.90
2018-02-20T18:00:51.403Z,74.27
2018-02-20T18:03:19.089Z,64.57
2018-02-20T18:05:46.816Z,70.77
2018-02-20T18:08:15.844Z,61.07
2018-02-20T18:10:43.511Z,70.03
2018-02-20T18:13:11.280Z,68.17
2018-02-20T18:15:38.941Z,64.70
2018-02-20T18:18:07.248Z,64.10
2018-02-20T18:20:34.926Z,69.90
2018-02-20T18:23:03.206Z,68.57
2018-02-20T18:25:31.657Z,68.70
2018-02-20T18:27:59.452Z,70.80
2018-02-20T18:30:28.235Z,73.60
2018-02-20T18:32:55.948Z,126.13
2018-02-20T18:35:23.605Z,67.90
2018-02-20T18:37:51.464Z,71.07
2018-02-20T18:40:19.775Z,66.43
2018-02-20T18:42:47.883Z,71.03
2018-02-20T18:45:16.072Z,68.73
2018-02-20T18:47:43.750Z,75.03
2018-02-20T18:50:11.482Z,78.77
2018-02-20T18:52:40.801Z,71.33
2018-02-20T18:55:08.635Z,73.33
2018-02-20T18:57:36.408Z,70.90
2018-02-20T19:00:04.951Z,72.50
2018-02-20T19:02:32.633Z,72.90
2018-02-20T19:05:00.328Z,74.27
2018-02-20T19:07:28.910Z,70.97
2018-02-20T19:09:57.537Z,80.83
2018-02-20T19:12:25.483Z,82.80
2018-02-20T19:14:53.281Z,73.77
2018-02-20T19:17:21.010Z,80.90
2018-02-20T19:19:48.895Z,87.23
2018-02-20T19:22:17.462Z,84.73
2018-02-20T19:24:45.792Z,81.07
2018-02-20T19:27:15.232Z,80.83
2018-02-20T19:29:44.067Z,82.33
2018-02-20T19:32:12.243Z,75.70
2018-02-20T19:34:40.366Z,79.57
2018-02-20T19:37:08.248Z,79.50
2018-02-20T19:39:36.647Z,74.13
2018-02-20T19:42:04.503Z,77.00
2018-02-20T19:44:32.534Z,73.37
2018-02-20T19:47:00.466Z,75.87
2018-02-20T19:49:28.400Z,77.60
2018-02-20T19:51:56.869Z,86.77
2018-02-20T19:54:26.163Z,90.33
2018-02-20T19:56:54.665Z,84.07
2018-02-20T19:59:22.573Z,82.23
2018-02-20T20:01:50.359Z,82.40
2018-02-20T20:04:18.387Z,78.97
2018-02-20T20:06:46.371Z,83.93
2018-02-20T20:09:14.177Z,80.80
2018-02-20T20:11:42.660Z,81.23
2018-02-20T20:14:11.955Z,86.73
2018-02-20T20:16:40.765Z,84.17
2018-02-20T20:19:09.271Z,80.37
2018-02-20T20:21:36.979Z,77.60
2018-02-20T20:24:04.749Z,86.53
2018-02-20T20:26:32.435Z,76.83
2018-02-20T20:29:00.206Z,79.77
2018-02-20T20:31:27.914Z,83.07
2018-02-20T20:33:55.942Z,86.23
2018-02-20T20:36:23.766Z,75.87
2018-02-20T20:38:51.454Z,72.97
2018-02-20T20:41:20.270Z,81.27
2018-02-20T20:43:48.201Z,71.77
2018-02-20T20:46:16.728Z,74.97
2018-02-20T20:48:44.560Z,79.47
2018-02-20T20:51:13.155Z,82.27
2018-02-20T20:53:41.468Z,82.40
2018-02-20T20:56:09.362Z,82.43
2018-02-20T20:58:37.097Z,79.03
2018-02-20T21:01:04.814Z,80.40
2018-02-20T21:03:33.271Z,76.87
2018-02-20T21:06:01.357Z,80.37
2018-02-20T21:08:29.820Z,86.70
2018-02-20T21:10:57.496Z,78.87
2018-02-20T21:13:26.109Z,81.57
2018-02-20T21:15:53.873Z,83.27
2018-02-20T21:18:21.667Z,77.63
2018-02-20T21:20:49.386Z,79.97
2018-02-20T21:23:17.032Z,82.77
2018-02-20T21:25:45.455Z,83.63
2018-02-20T21:28:13.091Z,81.10
2018-02-20T21:30:40.809Z,80.27
2018-02-20T21:33:08.472Z,81.40
2018-02-20T21:35:36.175Z,77.50
2018-02-20T21:38:03.886Z,76.43
2018-02-20T21:40:31.528Z,74.63
2018-02-20T21:42:59.338Z,73.00
2018-02-20T21:45:26.993Z,71.57
2018-02-20T21:47:54.665Z,73.87
2018-02-20T21:50:23.086Z,66.77
2018-02-20T21:52:50.755Z,69.50
2018-02-20T21:55:18.433Z,70.67
2018-02-20T21:57:46.092Z,74.50
2018-02-20T22:00:13.737Z,66.83
2018-02-20T22:02:42.116Z,69.07
2018-02-20T22:05:09.816Z,62.00
2018-02-20T22:07:37.487Z,64.63
2018-02-20T22:10:05.177Z,63.40
2018-02-20T22:12:32.802Z,72.13
2018-02-20T22:15:00.799Z,72.30
2018-02-20T22:17:28.529Z,67.93
2018-02-20T22:19:56.195Z,64.10
2018-02-20T22:22:23.862Z,66.00
2018-02-20T22:24:53.574Z,68.53
2018-02-20T22:27:21.230Z,65.53
2018-02-20T22:29:48.877Z,65.13
2018-02-20T22:32:17.366Z,69.40
2018-02-20T22:34:45.020Z,63.10
2018-02-20T22:37:12.755Z,73.47
2018-02-20T22:39:40.395Z,68.93
2018-02-20T22:42:08.078Z,66.43
2018-02-20T22:44:35.730Z,65.70
2018-02-20T22:47:03.463Z,67.40
2018-02-20T22:49:31.899Z,72.30
2018-02-20T22:51:59.993Z,68.47
2018-02-20T22:54:27.616Z,63.73
2018-02-20T22:56:55.283Z,63.87
2018-02-20T22:59:22.981Z,67.20
2018-02-20T23:01:52.421Z,65.57
2018-02-20T23:04:20.083Z,61.53
2018-02-20T23:06:47.785Z,62.23
2018-02-20T23:09:15.473Z,67.20
2018-02-20T23:11:47.688Z,70.77
2018-02-20T23:14:15.347Z,69.20
2018-02-20T23:16:42.984Z,70.67
2018-02-20T23:19:10.664Z,65.60
2018-02-20T23:21:38.344Z,68.43
2018-02-20T23:24:06.339Z,65.70
2018-02-20T23:26:33.950Z,68.53
2018-02-20T23:29:01.584Z,71.43
2018-02-20T23:31:29.993Z,66.50
2018-02-20T23:33:57.697Z,66.87
2018-02-20T23:36:26.161Z,64.00
2018-02-20T23:38:53.850Z,66.20
2018-02-20T23:41:21.523Z,69.13
2018-02-20T23:43:49.135Z,67.13
2018-02-20T23:46:16.815Z,68.53
2018-02-20T23:48:44.456Z,69.60
2018-02-20T23:51:18.017Z,70.80
2018-02-20T23:53:46.904Z,72.20
2018-02-20T23:56:15.304Z,66.27
2018-02-20T23:58:42.941Z,74.57
